Weather at Jerusalem International Airport [CLOSED]

Public forecast

Using degrees Celsius for public forecast. Weather courtesy of forecast.io.

Closest aviation weather report (METAR) to Jerusalem International Airport

Closest report is Ben Gurion International Airport, 19.0 nm (35.2 km) WNW.

2023/01/30 00:20 (retrieved 27 minutes ago)

LLBG 300020Z VRB02KT 9999 FEW030 13/10 Q1012 NOSIG

Closest aviation forecast (TAF) to Jerusalem International Airport

Forecast is more than 12 hours old.

Closest forecast is Rosh Pina Airport, 69.3 nm (128.3 km) NNE.

2023/01/29 12:09 Ammendment (retrieved 13 hours ago)

TAF AMD LLIB 291605Z 2912/3012 CNL